Time;durP1;ratioP1;P1;durP2;ratioP2;P2;SDS_P1;SDS_P2;PMS_P1;PMS_P2;Temp;Humidity;BMP_temperature;BMP_pressure;BME280_temperature;BME280_humidity;BME280_pressure;Samples;Min_cycle;Max_cycle;Signal;HPM_P1;HPM_P2
2022/10/07 00:02:16;;;;;;;10.28;6.25;;;;;;;11.98;65.53;101812.30;1808688;79;20926;-87
2022/10/07 00:04:45;;;;;;;8.28;5.80;;;;;;;11.95;65.56;101808.05;1808687;79;20851;-86
2022/10/07 00:07:13;;;;;;;12.60;6.60;;;;;;;11.92;65.61;101809.52;1808673;79;20855;-86
2022/10/07 00:09:40;;;;;;;11.85;6.12;;;;;;;11.90;65.65;101803.95;1808387;79;20947;-87
2022/10/07 00:12:06;;;;;;;10.35;5.90;;;;;;;11.87;65.74;101800.94;1808382;79;21159;-88
2022/10/07 00:14:33;;;;;;;13.68;5.97;;;;;;;11.85;65.90;101807.20;1808210;79;20899;-86
2022/10/07 00:17:01;;;;;;;9.20;5.60;;;;;;;11.82;65.88;101806.87;1808364;79;20930;-87
2022/10/07 00:19:30;;;;;;;9.58;5.72;;;;;;;11.79;66.37;101803.94;1808464;79;21009;-87
2022/10/07 00:21:57;;;;;;;13.00;5.42;;;;;;;11.77;66.98;101804.94;1808404;79;20997;-87
2022/10/07 00:24:24;;;;;;;7.30;5.85;;;;;;;11.72;67.26;101805.62;1808445;79;21130;-87
2022/10/07 00:26:50;;;;;;;11.95;6.17;;;;;;;11.67;67.73;101807.14;1808497;79;20836;-87
2022/10/07 00:29:17;;;;;;;9.98;6.25;;;;;;;11.62;68.05;101805.16;1808493;79;20895;-86
2022/10/07 00:31:43;;;;;;;7.72;5.62;;;;;;;11.58;68.29;101804.91;1808443;79;20934;-86
2022/10/07 00:34:11;;;;;;;10.82;6.58;;;;;;;11.52;68.54;101806.05;1808456;79;20927;-87
2022/10/07 00:36:38;;;;;;;7.80;5.67;;;;;;;11.47;69.02;101796.22;1808428;79;21153;-87
2022/10/07 00:39:13;;;;;;;8.08;5.60;;;;;;;11.43;69.28;101805.16;1808352;79;20887;-87
2022/10/07 00:41:44;;;;;;;14.28;7.15;;;;;;;11.39;69.55;101807.52;1808475;79;20933;-84
2022/10/07 00:44:41;;;;;;;10.00;5.92;;;;;;;11.33;69.90;101799.91;1808394;79;20935;-86
2022/10/07 00:47:24;;;;;;;8.73;6.08;;;;;;;11.28;70.13;101796.64;1808457;79;21021;-87
2022/10/07 00:50:16;;;;;;;9.15;6.22;;;;;;;11.23;70.52;101803.41;1810451;79;21320;-86
2022/10/07 00:52:50;;;;;;;12.23;7.45;;;;;;;11.19;70.59;101797.89;1810026;76;20886;-87
2022/10/07 00:55:21;;;;;;;12.90;7.15;;;;;;;11.15;70.90;101791.91;1807933;79;20896;-85
2022/10/07 00:57:48;;;;;;;9.33;6.60;;;;;;;11.13;71.12;101798.15;1808493;79;20914;-86
2022/10/07 01:00:16;;;;;;;10.05;6.83;;;;;;;11.08;71.25;101793.10;1808434;79;20887;-86
2022/10/07 01:02:43;;;;;;;10.03;7.15;;;;;;;11.06;71.30;101795.41;1808494;79;21128;-87
2022/10/07 01:05:13;;;;;;;9.78;6.58;;;;;;;11.03;71.35;101799.02;1808441;79;20875;-86
2022/10/07 01:07:41;;;;;;;14.45;7.30;;;;;;;11.02;71.71;101799.92;1808990;79;20934;-86
2022/10/07 01:10:10;;;;;;;12.55;6.80;;;;;;;11.01;71.85;101798.70;1809578;79;20930;-87
2022/10/07 01:13:06;;;;;;;11.95;7.72;;;;;;;10.98;71.97;101799.22;1809479;79;20981;-85
2022/10/07 01:16:05;;;;;;;14.68;8.40;;;;;;;10.96;72.05;101808.05;1807164;79;21149;-86
2022/10/07 01:19:03;;;;;;;11.40;7.67;;;;;;;10.93;72.21;101805.09;1808448;79;20953;-86
2022/10/07 01:21:37;;;;;;;11.83;7.85;;;;;;;10.91;72.30;101812.65;1808641;79;21345;-86
2022/10/07 01:24:13;;;;;;;14.38;8.20;;;;;;;10.88;72.79;101807.55;1808955;79;20925;-84
2022/10/07 01:27:15;;;;;;;16.70;9.93;;;;;;;10.86;73.24;101812.00;1811451;76;20899;-85
2022/10/07 01:30:02;;;;;;;11.35;8.28;;;;;;;10.81;73.47;101809.57;1810679;76;21139;-86
2022/10/07 01:32:37;;;;;;;11.55;9.00;;;;;;;10.79;74.00;101814.03;1811048;76;20934;-88
2022/10/07 01:35:05;;;;;;;;;;;;;;;10.78;74.20;101812.30;1814387;79;20922;-87
2022/10/07 01:37:34;;;;;;;15.15;9.08;;;;;;;10.76;74.50;101819.38;1809083;78;20582;-86
2022/10/07 01:40:12;;;;;;;16.48;8.48;;;;;;;10.72;74.73;101815.20;1781397;78;20918;-86
2022/10/07 01:42:40;;;;;;;15.23;9.70;;;;;;;10.68;75.03;101818.41;1810084;79;21086;-86
2022/10/07 01:45:09;;;;;;;17.07;9.90;;;;;;;10.66;75.26;101822.02;1779927;79;21311;-86
2022/10/07 01:47:38;;;;;;;15.18;10.35;;;;;;;10.63;75.41;101821.68;1809346;79;21009;-86
2022/10/07 01:50:11;;;;;;;13.22;8.88;;;;;;;10.61;75.55;101819.58;1809223;79;20934;-87
2022/10/07 01:52:53;;;;;;;18.07;11.10;;;;;;;10.61;75.84;101826.59;1777803;80;21443;-87
2022/10/07 01:55:44;;;;;;;17.02;11.08;;;;;;;10.59;76.12;101826.65;1811695;79;22037;-86
2022/10/07 01:58:48;;;;;;;18.57;10.40;;;;;;;10.57;76.34;101827.17;1779343;78;20946;-87
2022/10/07 02:01:26;;;;;;;15.40;10.75;;;;;;;10.55;76.56;101824.59;1811832;76;20977;-85
2022/10/07 02:04:30;;;;;;;18.20;12.35;;;;;;;10.54;76.82;101827.31;1801199;76;20890;-86
2022/10/07 02:07:15;;;;;;;22.42;12.78;;;;;;;10.51;76.97;101828.72;1809119;79;21005;-84
2022/10/07 02:10:00;;;;;;;20.97;13.38;;;;;;;10.48;77.07;101826.23;1811274;79;21868;-86
2022/10/07 02:12:35;;;;;;;21.05;14.33;;;;;;;10.47;77.29;101832.38;1811547;76;20927;-87
2022/10/07 02:15:10;;;;;;;22.07;12.93;;;;;;;10.46;77.41;101829.38;1807920;79;20851;-87
2022/10/07 02:17:42;;;;;;;24.23;15.13;;;;;;;10.43;77.56;101830.36;1809155;79;20970;-85
2022/10/07 02:20:10;;;;;;;24.35;14.78;;;;;;;10.44;77.72;101829.89;1809015;79;20895;-86
2022/10/07 02:22:38;;;;;;;24.92;13.58;;;;;;;10.43;77.75;101833.44;1808923;79;21533;-85
2022/10/07 02:25:06;;;;;;;25.10;15.00;;;;;;;10.41;77.79;101832.64;1808980;79;20851;-86
2022/10/07 02:27:36;;;;;;;25.27;14.18;;;;;;;10.42;77.88;101831.72;1809074;79;20906;-87
2022/10/07 02:30:10;;;;;;;19.95;12.63;;;;;;;10.41;78.01;101832.18;1808979;79;20899;-86
2022/10/07 02:32:40;;;;;;;23.20;14.35;;;;;;;10.40;78.18;101832.23;1808239;79;20974;-87
2022/10/07 02:35:19;;;;;;;26.87;14.55;;;;;;;10.39;78.29;101831.85;1808967;79;21109;-87
2022/10/07 02:37:48;;;;;;;23.65;14.98;;;;;;;10.37;78.44;101834.06;1809294;79;20910;-87
2022/10/07 02:40:15;;;;;;;25.48;15.95;;;;;;;10.37;78.82;101840.62;1809088;79;20910;-87
2022/10/07 02:42:59;;;;;;;23.73;13.80;;;;;;;10.38;79.19;101841.46;1808907;79;20859;-86
2022/10/07 02:45:42;;;;;;;17.70;12.90;;;;;;;10.36;79.32;101848.09;1808907;79;20883;-87
2022/10/07 02:48:17;;;;;;;28.87;15.58;;;;;;;10.35;79.36;101850.77;1809528;79;21955;-88
2022/10/07 02:50:47;;;;;;;25.15;14.07;;;;;;;10.34;79.30;101849.08;1809160;79;20882;-85
2022/10/07 02:53:15;;;;;;;22.87;13.28;;;;;;;10.32;79.32;101848.28;1809724;79;21383;-86
2022/10/07 02:55:42;;;;;;;22.15;14.00;;;;;;;10.31;79.24;101850.48;1811554;76;20938;-86
2022/10/07 02:58:10;;;;;;;20.68;13.60;;;;;;;10.29;79.15;101847.07;1807748;79;21407;-87
2022/10/07 03:00:41;;;;;;;24.02;13.62;;;;;;;10.26;79.03;101850.64;1805066;79;21811;-86
2022/10/07 03:03:08;;;;;;;23.30;14.07;;;;;;;10.25;78.96;101853.31;1805157;79;20934;-87
2022/10/07 03:05:37;;;;;;;23.80;12.93;;;;;;;10.21;79.04;101853.06;1803265;79;21684;-87
2022/10/07 03:08:09;;;;;;;20.75;13.60;;;;;;;10.18;79.17;101854.00;1805326;79;20930;-86
2022/10/07 03:10:36;;;;;;;21.00;12.40;;;;;;;10.14;79.34;101846.73;1806070;79;21356;-85
2022/10/07 03:13:06;;;;;;;19.75;12.88;;;;;;;10.14;79.70;101844.11;1808762;79;21070;-85
2022/10/07 03:15:36;;;;;;;20.60;12.00;;;;;;;10.16;79.92;101849.31;1807328;79;20910;-86
2022/10/07 03:18:05;;;;;;;21.00;11.50;;;;;;;10.14;79.95;101845.42;1807041;79;20879;-88
2022/10/07 03:20:31;;;;;;;16.10;10.75;;;;;;;10.13;80.06;101850.72;1807123;77;20930;-85
2022/10/07 03:22:58;;;;;;;18.73;11.45;;;;;;;10.11;80.20;101849.92;1808366;78;20887;-86
2022/10/07 03:25:27;;;;;;;19.95;11.83;;;;;;;10.09;80.26;101851.73;1808556;76;21201;-86
2022/10/07 03:27:57;;;;;;;23.05;12.47;;;;;;;10.08;80.45;101849.58;1808200;76;21198;-85
2022/10/07 03:30:23;;;;;;;22.00;12.05;;;;;;;10.07;80.69;101850.51;1808153;76;20969;-86
2022/10/07 03:32:51;;;;;;;21.57;12.07;;;;;;;10.07;80.95;101855.75;1807909;76;20902;-87
2022/10/07 03:35:17;;;;;;;21.57;12.98;;;;;;;10.06;81.06;101863.66;1808530;76;20981;-87
2022/10/07 03:37:45;;;;;;;21.40;12.60;;;;;;;10.05;80.97;101869.80;1808401;76;21074;-87
2022/10/07 03:40:12;;;;;;;24.50;17.15;;;;;;;10.03;81.00;101869.88;1808616;78;20875;-89
2022/10/07 03:42:40;;;;;;;22.77;12.23;;;;;;;10.02;80.87;101868.16;1806805;79;20891;-88
2022/10/07 03:45:07;;;;;;;18.77;11.60;;;;;;;10.02;80.84;101872.55;1806808;79;20990;-87
2022/10/07 03:47:34;;;;;;;21.00;12.05;;;;;;;9.99;80.97;101880.07;1806947;79;20879;-88
2022/10/07 03:50:02;;;;;;;18.87;11.57;;;;;;;9.99;80.94;101874.83;1806359;79;21104;-87
2022/10/07 03:52:35;;;;;;;16.10;10.23;;;;;;;9.98;80.91;101873.57;1806599;79;20935;-86
2022/10/07 03:55:01;;;;;;;17.62;10.80;;;;;;;9.96;80.96;101879.73;1806279;79;20967;-87
2022/10/07 04:00:14;;;;;;;19.30;9.88;;;;;;;9.94;81.08;101878.09;1805855;79;21392;-88
2022/10/07 04:02:48;;;;;;;15.45;9.38;;;;;;;9.94;81.17;101876.78;1805674;79;21121;-87
2022/10/07 04:05:19;;;;;;;19.48;9.28;;;;;;;9.94;81.29;101880.70;1772199;81;20888;-87
2022/10/07 04:07:48;;;;;;;17.30;10.03;;;;;;;9.93;81.52;101874.59;1808590;79;20855;-88
2022/10/07 04:10:16;;;;;;;14.83;9.85;;;;;;;9.94;81.85;101879.40;1805522;79;21344;-88
2022/10/07 04:12:50;;;;;;;13.83;9.03;;;;;;;9.93;82.09;101873.28;1805449;79;21324;-88
2022/10/07 04:15:19;;;;;;;15.90;9.70;;;;;;;9.93;82.39;101869.34;1806463;79;20950;-87
2022/10/07 04:17:48;;;;;;;21.02;9.93;;;;;;;9.96;82.71;101876.27;1773872;81;20990;-85
2022/10/07 04:20:19;;;;;;;11.63;9.13;;;;;;;9.98;82.99;101873.57;1809041;79;20851;-87
2022/10/07 04:22:46;;;;;;;16.70;9.75;;;;;;;10.01;83.16;101878.25;1775996;81;20871;-88
2022/10/07 04:25:32;;;;;;;16.25;10.13;;;;;;;10.03;83.31;101880.83;1809225;79;20851;-88
2022/10/07 04:28:07;;;;;;;16.12;10.25;;;;;;;10.05;83.61;101878.97;1773627;81;21820;-87
2022/10/07 04:30:39;;;;;;;18.70;10.98;;;;;;;10.08;83.90;101884.97;1808499;79;20895;-88
2022/10/07 04:33:07;;;;;;;15.15;8.95;;;;;;;10.12;84.29;101887.03;1808395;79;20946;-89
2022/10/07 04:35:38;;;;;;;22.15;10.05;;;;;;;10.16;84.48;101886.01;1767005;81;20962;-87
2022/10/07 04:38:10;;;;;;;18.65;10.45;;;;;;;10.22;84.48;101894.08;1805599;79;20941;-86
2022/10/07 04:40:50;;;;;;;14.73;9.63;;;;;;;10.25;84.52;101901.37;1808574;79;20887;-87
2022/10/07 04:43:25;;;;;;;21.60;9.25;;;;;;;10.29;84.43;101899.08;1773800;81;21450;-89
2022/10/07 04:46:03;;;;;;;13.72;10.35;;;;;;;10.33;84.54;101896.70;1806953;79;20855;-88
2022/10/07 04:48:32;;;;;;;20.68;9.83;;;;;;;10.39;84.50;101903.96;1747932;81;20923;-87
2022/10/07 04:51:03;;;;;;;21.27;10.40;;;;;;;10.44;84.58;101901.55;1811345;78;20934;-87
2022/10/07 04:53:30;;;;;;;24.20;14.38;;;;;;;10.50;84.61;101895.22;1774106;80;21235;-87
2022/10/07 04:55:57;;;;;;;24.40;10.25;;;;;;;10.58;84.72;101899.69;1808699;79;21570;-87
2022/10/07 04:58:24;;;;;;;21.15;14.10;;;;;;;10.67;84.88;101904.59;1793901;79;20883;-87
2022/10/07 05:00:52;;;;;;;22.58;14.20;;;;;;;10.77;84.80;101905.92;1776890;80;21435;-88
2022/10/07 05:03:23;;;;;;;27.40;14.98;;;;;;;10.88;84.61;101908.58;1790343;80;21542;-88
2022/10/07 05:05:52;;;;;;;27.35;16.48;;;;;;;10.96;84.42;101903.84;1790341;79;21116;-88
2022/10/07 05:08:23;;;;;;;21.80;15.70;;;;;;;11.04;84.27;101907.02;1790482;80;21458;-87
2022/10/07 05:10:56;;;;;;;29.48;17.70;;;;;;;11.11;84.01;101908.47;1790646;79;20939;-87
2022/10/07 05:13:24;;;;;;;30.90;18.25;;;;;;;11.22;83.92;101913.75;1789944;79;20899;-87
2022/10/07 05:15:57;;;;;;;29.90;15.23;;;;;;;11.35;83.99;101913.62;1790242;79;20983;-88
2022/10/07 05:18:25;;;;;;;30.95;14.78;;;;;;;11.47;83.62;101919.68;1790366;79;21832;-88
2022/10/07 05:20:54;;;;;;;28.30;15.13;;;;;;;11.57;83.16;101916.19;1790216;80;20876;-88
2022/10/07 05:23:23;;;;;;;18.98;14.47;;;;;;;11.72;83.23;101923.41;1790402;79;21358;-86
2022/10/07 05:25:59;;;;;;;15.32;11.15;;;;;;;12.05;83.76;101917.61;1789980;80;20934;-87
2022/10/07 05:28:26;;;;;;;16.05;10.20;;;;;;;12.47;83.16;101920.93;1790027;80;21129;-88
2022/10/07 05:31:05;;;;;;;14.60;9.35;;;;;;;12.86;81.25;101928.23;1790115;80;21305;-87
2022/10/07 05:33:31;;;;;;;18.65;10.15;;;;;;;13.17;79.94;101932.00;1776577;80;20978;-89
2022/10/07 05:35:59;;;;;;;16.67;9.28;;;;;;;13.62;79.05;101931.94;1790607;80;20974;-89
2022/10/07 05:38:27;;;;;;;11.78;8.00;;;;;;;14.26;78.10;101928.98;1790328;80;20860;-88
2022/10/07 05:40:58;;;;;;;15.68;8.23;;;;;;;15.07;75.99;101930.22;1776669;80;20935;-87
2022/10/07 05:43:28;;;;;;;20.02;8.23;;;;;;;15.99;72.41;101948.17;1790221;80;21998;-88
2022/10/07 05:46:09;;;;;;;13.65;7.47;;;;;;;16.87;68.65;101954.92;1790125;80;20923;-90
2022/10/07 05:48:38;;;;;;;10.10;6.12;;;;;;;17.68;66.08;101933.22;1790592;79;20951;-88
2022/10/07 05:51:09;;;;;;;7.00;5.72;;;;;;;18.54;62.54;101949.27;1773701;80;20915;-90
2022/10/07 05:53:40;;;;;;;7.03;5.72;;;;;;;19.27;60.03;101946.10;1762830;80;20982;-89
2022/10/07 05:56:11;;;;;;;8.65;5.20;;;;;;;19.93;57.89;101944.20;1777072;80;21269;-88
2022/10/07 05:58:38;;;;;;;12.10;5.33;;;;;;;20.56;55.25;101967.16;1799011;79;21002;-88
2022/10/07 06:01:07;;;;;;;8.18;5.30;;;;;;;21.07;52.69;101971.39;1804793;75;21002;-88
2022/10/07 06:03:33;;;;;;;7.60;5.53;;;;;;;21.46;51.06;101958.88;1805711;75;20867;-88
2022/10/07 06:06:01;;;;;;;8.53;4.97;;;;;;;21.82;49.74;101966.05;1804810;75;20840;-88
2022/10/07 06:08:28;;;;;;;5.75;4.45;;;;;;;22.16;48.67;101971.95;1806762;75;21080;-87
2022/10/07 06:13:49;;;;;;;8.05;4.78;;;;;;;23.00;46.30;101976.15;1806948;75;20943;-89
2022/10/07 06:16:16;;;;;;;7.12;4.65;;;;;;;23.48;45.31;101974.78;1804355;79;20887;-88
2022/10/07 06:18:46;;;;;;;8.58;4.83;;;;;;;23.88;44.11;101984.45;1804359;79;20974;-86
2022/10/07 06:21:13;;;;;;;5.25;4.22;;;;;;;24.24;43.18;101979.22;1804216;79;21220;-88
2022/10/07 06:23:40;;;;;;;5.60;4.50;;;;;;;24.61;42.03;101981.01;1804066;79;20966;-86
2022/10/07 06:26:10;;;;;;;5.42;4.30;;;;;;;24.90;41.21;101981.30;1804146;79;21021;-88
2022/10/07 06:28:39;;;;;;;5.20;4.70;;;;;;;25.15;40.80;101983.23;1774946;79;21554;-88
2022/10/07 06:31:12;;;;;;;8.30;4.80;;;;;;;25.41;40.20;101988.69;1804156;79;20883;-89
2022/10/07 06:33:38;;;;;;;5.37;4.58;;;;;;;25.59;39.88;101984.62;1804323;79;22146;-88
2022/10/07 06:36:11;;;;;;;10.35;4.87;;;;;;;25.74;39.20;101988.05;1803965;79;20926;-87
2022/10/07 06:38:44;;;;;;;7.25;4.50;;;;;;;25.90;39.03;101983.30;1802746;79;21013;-89
2022/10/07 06:41:13;;;;;;;6.95;4.67;;;;;;;25.82;38.66;101983.58;1803706;79;20923;-86
2022/10/07 06:43:40;;;;;;;8.80;4.78;;;;;;;25.43;38.87;101984.00;1803971;79;20919;-88
2022/10/07 06:46:12;;;;;;;6.12;5.10;;;;;;;24.94;39.50;101991.58;1803753;79;21118;-87
2022/10/07 06:48:41;;;;;;;5.65;4.92;;;;;;;24.36;40.39;101983.88;1803638;79;20966;-88
2022/10/07 06:51:12;;;;;;;22.00;6.08;;;;;;;23.77;41.32;101984.12;1803702;79;21486;-87
2022/10/07 06:53:41;;;;;;;10.08;5.00;;;;;;;23.26;42.47;101978.61;1803043;79;20946;-88
2022/10/07 06:56:10;;;;;;;8.05;5.50;;;;;;;22.96;43.55;101975.05;1804031;79;20982;-90
2022/10/07 06:58:39;;;;;;;8.45;5.25;;;;;;;23.00;44.26;101976.15;1793734;79;21231;-89
2022/10/07 07:01:09;;;;;;;10.72;5.92;;;;;;;23.30;43.79;101974.67;1746632;81;20954;-88
2022/10/07 07:03:40;;;;;;;7.20;5.83;;;;;;;23.79;42.95;101976.79;1771874;81;21451;-88
2022/10/07 07:06:09;;;;;;;6.25;4.62;;;;;;;24.26;42.16;101963.83;1771976;81;21009;-88
2022/10/07 07:08:40;;;;;;;7.17;4.47;;;;;;;24.79;41.44;101975.19;1772149;81;21459;-88
2022/10/07 07:12:41;;;;;;;9.40;4.80;;;;;;;25.56;40.37;101967.45;1855310;77;22489;-89
2022/10/07 07:15:09;;;;;;;6.67;5.33;;;;;;;25.92;39.63;101963.32;1825910;77;20974;-87
2022/10/07 07:17:36;;;;;;;10.13;5.30;;;;;;;26.36;38.90;101963.17;1824491;78;21077;-87
2022/10/07 07:20:03;;;;;;;7.42;4.87;;;;;;;26.78;38.32;101959.61;1822650;78;20904;-87
2022/10/07 07:22:31;;;;;;;6.72;5.17;;;;;;;27.19;37.86;101963.69;1822639;78;20973;-88
2022/10/07 07:24:57;;;;;;;6.65;4.62;;;;;;;27.57;37.02;101967.19;1822534;78;20879;-87
2022/10/07 07:27:26;;;;;;;11.00;5.17;;;;;;;27.89;36.28;101963.09;1822578;78;20911;-87
2022/10/07 07:29:53;;;;;;;6.40;4.67;;;;;;;28.10;35.72;101971.97;1822629;78;21247;-87
2022/10/07 07:32:20;;;;;;;7.92;5.78;;;;;;;28.36;35.38;101969.48;1824201;78;20927;-88
2022/10/07 07:34:47;;;;;;;6.37;4.95;;;;;;;28.70;34.78;101965.59;1824605;78;20857;-87
2022/10/07 07:37:16;;;;;;;6.70;5.10;;;;;;;28.91;34.49;101965.78;1822094;78;21046;-85
2022/10/07 07:39:45;;;;;;;114.47;104.40;;;;;;;29.16;34.15;101969.67;1822572;78;20965;-90
2022/10/07 07:42:13;;;;;;;11.40;5.67;;;;;;;29.36;33.85;101965.11;1822526;78;21082;-89
2022/10/07 07:44:40;;;;;;;45.25;38.83;;;;;;;29.52;33.65;101962.23;1822888;78;20906;-88
2022/10/07 07:47:11;;;;;;;6.45;4.75;;;;;;;29.77;33.35;101963.35;1822579;78;20954;-87
2022/10/07 07:49:42;;;;;;;7.92;5.45;;;;;;;29.93;33.11;101961.83;1822625;78;20939;-88
2022/10/07 07:52:10;;;;;;;4.60;4.20;;;;;;;30.10;32.89;101956.55;1822566;78;20921;-89
2022/10/07 07:54:42;;;;;;;4.55;3.77;;;;;;;30.27;32.59;101959.02;1822490;78;21214;-87
2022/10/07 07:57:10;;;;;;;7.15;5.08;;;;;;;30.40;32.27;101961.91;1822420;78;21045;-88
2022/10/07 07:59:37;;;;;;;6.85;4.28;;;;;;;30.55;32.08;101957.82;1822771;78;21316;-88
2022/10/07 08:02:04;;;;;;;5.67;4.03;;;;;;;30.74;31.91;101950.91;1822526;78;20888;-88
2022/10/07 08:04:31;;;;;;;4.45;3.92;;;;;;;30.95;31.71;101955.02;1822611;78;21525;-89
2022/10/07 08:06:59;;;;;;;4.33;3.83;;;;;;;31.14;31.58;101955.37;1822559;78;21264;-88
2022/10/07 08:09:27;;;;;;;5.08;4.08;;;;;;;31.33;31.27;101947.91;1822773;78;21317;-90
2022/10/07 08:11:56;;;;;;;7.08;3.92;;;;;;;31.49;31.43;101948.16;1824537;78;21425;-89
2022/10/07 08:14:25;;;;;;;8.58;6.85;;;;;;;31.64;31.11;101944.48;1816124;78;21357;-90
2022/10/07 08:16:56;;;;;;;102.27;92.25;;;;;;;31.75;30.58;101943.41;1740052;82;20907;-89
2022/10/07 08:19:22;;;;;;;5.58;4.75;;;;;;;31.80;30.43;101938.22;1724207;83;21183;-89
2022/10/07 08:21:51;;;;;;;11.65;4.22;;;;;;;31.95;30.50;101938.58;1727461;82;20968;-87
2022/10/07 08:24:23;;;;;;;5.78;4.05;;;;;;;32.17;30.23;101941.55;1739218;82;20997;-89
2022/10/07 08:26:50;;;;;;;5.62;3.75;;;;;;;32.26;30.19;101939.49;1739643;82;20970;-88
2022/10/07 08:29:17;;;;;;;5.92;4.87;;;;;;;32.38;30.32;101932.94;1741457;82;21392;-88
2022/10/07 08:31:45;;;;;;;4.28;3.70;;;;;;;32.42;29.74;101928.77;1742227;80;21125;-87
2022/10/07 08:34:11;;;;;;;7.22;3.70;;;;;;;32.61;29.65;101938.84;1739883;82;21403;-89
2022/10/07 08:36:39;;;;;;;5.33;4.37;;;;;;;32.76;29.36;101936.48;1739564;82;21010;-90
2022/10/07 08:39:05;;;;;;;6.17;4.35;;;;;;;32.91;29.07;101927.61;1739420;82;21024;-91
2022/10/07 08:42:01;;;;;;;7.22;3.90;;;;;;;32.92;28.97;101935.23;1739508;82;20986;-89
2022/10/07 08:44:37;;;;;;;5.67;4.00;;;;;;;32.90;28.82;101937.32;1739578;82;21142;-90
2022/10/07 08:47:19;;;;;;;5.05;3.27;;;;;;;32.90;28.57;101935.43;1739469;81;20931;-92
2022/10/07 08:50:23;;;;;;;4.00;3.70;;;;;;;32.79;28.84;101931.98;1739824;81;21380;-91
2022/10/07 08:52:58;;;;;;;4.65;4.03;;;;;;;32.74;28.88;101931.77;1739478;82;20962;-88
2022/10/07 08:56:01;;;;;;;4.35;3.60;;;;;;;32.55;28.63;101924.76;1739927;82;20938;-89
2022/10/07 08:59:00;;;;;;;6.90;4.15;;;;;;;32.25;28.92;101922.88;1735873;82;21213;-90
2022/10/07 09:01:50;;;;;;;3.87;3.47;;;;;;;32.32;29.21;101928.31;1739513;82;20934;-88
2022/10/07 09:04:40;;;;;;;7.22;3.25;;;;;;;32.56;28.86;101926.42;1739439;82;20922;-90
2022/10/07 09:07:28;;;;;;;4.37;3.75;;;;;;;32.84;28.85;101922.70;1739310;82;20938;-90
2022/10/07 09:10:04;;;;;;;4.25;3.35;;;;;;;33.17;28.51;101923.22;1739588;82;21421;-88
2022/10/07 09:12:53;;;;;;;7.80;3.87;;;;;;;33.23;27.78;101926.46;1727703;81;21139;-89
2022/10/07 09:15:46;;;;;;;7.33;3.52;;;;;;;32.86;27.97;101920.58;1695713;84;20940;-88
2022/10/07 09:18:30;;;;;;;3.58;3.30;;;;;;;32.39;28.29;101918.30;1695710;84;20924;-89
2022/10/07 09:20:57;;;;;;;3.62;3.33;;;;;;;32.15;29.01;101921.91;1695467;84;21078;-89
2022/10/07 09:23:32;;;;;;;3.45;2.87;;;;;;;32.30;28.83;101913.58;1695647;84;20947;-89
2022/10/07 09:25:59;;;;;;;4.47;2.90;;;;;;;32.47;28.96;101918.13;1695564;83;21294;-88
2022/10/07 09:28:30;;;;;;;8.18;3.85;;;;;;;32.76;28.79;101921.53;1703731;84;20928;-90
2022/10/07 09:31:01;;;;;;;4.17;3.10;;;;;;;32.92;28.73;101922.47;1685541;84;20908;-92
2022/10/07 09:33:28;;;;;;;7.33;3.30;;;;;;;33.04;28.05;101919.98;1703622;84;21575;-89
2022/10/07 09:36:07;;;;;;;4.75;3.22;;;;;;;33.00;28.03;101925.52;1703710;84;20939;-89
2022/10/07 09:38:39;;;;;;;3.33;3.02;;;;;;;33.11;28.22;101919.48;1703734;83;20904;-88
2022/10/07 09:41:34;;;;;;;4.58;3.52;;;;;;;33.11;28.30;101920.84;1703864;84;20947;-88
2022/10/07 09:44:20;;;;;;;4.60;3.08;;;;;;;32.89;28.39;101926.98;1705782;83;20916;-90
2022/10/07 09:46:58;;;;;;;4.65;2.98;;;;;;;32.27;28.84;101918.60;1706917;83;20975;-89
2022/10/07 09:49:36;;;;;;;6.10;3.45;;;;;;;31.71;29.47;101919.08;1704424;84;21016;-89
2022/10/07 09:52:14;;;;;;;4.30;3.10;;;;;;;31.59;30.36;101915.24;1703742;84;21262;-88
2022/10/07 09:57:53;;;;;;;3.60;2.92;;;;;;;31.22;30.06;101921.87;1730514;78;20912;-85
2022/10/07 10:00:24;;;;;;;3.10;2.80;;;;;;;30.57;30.84;101918.68;1789340;78;20888;-88
2022/10/07 10:02:59;;;;;;;8.00;2.80;;;;;;;30.16;31.27;101914.34;1790490;80;21377;-86
2022/10/07 10:05:35;;;;;;;9.03;2.85;;;;;;;29.86;31.79;101913.54;1789901;78;21223;-85
2022/10/07 10:08:19;;;;;;;4.65;3.45;;;;;;;29.67;31.54;101906.30;1790202;80;20919;-86
2022/10/07 10:10:56;;;;;;;3.90;2.85;;;;;;;29.49;31.72;101904.50;1789820;80;20967;-88
2022/10/07 10:13:33;;;;;;;3.45;2.70;;;;;;;29.55;31.89;101899.70;1791853;80;20915;-88
2022/10/07 10:16:00;;;;;;;4.28;2.42;;;;;;;29.46;32.20;101896.73;1768105;80;20923;-90
2022/10/07 10:18:35;;;;;;;6.87;2.42;;;;;;;29.27;32.29;101893.56;1792699;80;21542;-87
2022/10/07 10:21:18;;;;;;;11.53;10.40;;;;;;;28.91;32.72;101897.44;1792438;80;20946;-89
2022/10/07 10:24:11;;;;;;;15.35;12.37;;;;;;;28.61;33.15;101895.97;1792604;80;20943;-88
2022/10/07 10:26:57;;;;;;;5.65;4.83;;;;;;;28.21;33.50;101888.95;1792481;80;20926;-87
2022/10/07 10:29:41;;;;;;;9.70;8.73;;;;;;;27.94;33.70;101889.77;1792638;80;20982;-89
2022/10/07 10:32:42;;;;;;;5.08;2.92;;;;;;;28.03;34.16;101888.70;1792981;80;21072;-88
2022/10/07 10:35:27;;;;;;;6.00;4.67;;;;;;;28.28;32.92;101879.12;1792954;80;20904;-86
2022/10/07 10:38:28;;;;;;;4.05;2.42;;;;;;;28.54;32.06;101872.59;1793213;80;20922;-87
2022/10/07 10:41:06;;;;;;;2.55;2.22;;;;;;;28.78;32.19;101879.66;1789881;78;21050;-88
2022/10/07 10:44:02;;;;;;;5.10;1.70;;;;;;;29.08;31.81;101880.09;1793307;80;20848;-88
2022/10/07 10:46:50;;;;;;;3.65;1.87;;;;;;;29.36;31.42;101879.98;1793298;80;21231;-87
2022/10/07 10:49:48;;;;;;;68.85;62.45;;;;;;;29.49;30.34;101881.00;1773456;79;20832;-87
2022/10/07 10:52:51;;;;;;;10.38;8.38;;;;;;;29.38;30.54;101872.52;1790207;80;20903;-88
2022/10/07 10:55:55;;;;;;;15.20;10.17;;;;;;;28.69;31.26;101876.18;1790516;80;21420;-88
2022/10/07 10:58:52;;;;;;;18.57;16.60;;;;;;;28.14;32.18;101870.45;1792287;79;20916;-88
2022/10/07 11:01:24;;;;;;;18.85;17.02;;;;;;;27.84;32.02;101872.95;1773165;79;21168;-88
2022/10/07 11:04:23;;;;;;;15.45;11.97;;;;;;;27.65;32.58;101864.23;1795384;80;20932;-86
2022/10/07 11:07:15;;;;;;;7.35;3.25;;;;;;;27.47;32.33;101858.25;1795604;79;21321;-88
2022/10/07 11:09:58;;;;;;;1.77;1.67;;;;;;;27.36;33.04;101862.66;1794662;78;20928;-87
2022/10/07 11:12:38;;;;;;;6.37;5.80;;;;;;;27.41;33.25;101858.94;1794627;79;26400;-88
2022/10/07 11:15:12;;;;;;;7.22;3.85;;;;;;;27.31;33.55;101863.70;1794471;78;20927;-87
2022/10/07 11:17:39;;;;;;;5.58;2.02;;;;;;;26.98;33.49;101857.81;1794556;79;20896;-90
2022/10/07 11:20:26;;;;;;;4.45;2.25;;;;;;;26.57;33.82;101860.53;1795130;78;20947;-87
2022/10/07 11:23:05;;;;;;;2.65;2.17;;;;;;;26.11;34.59;101865.96;1794999;79;20908;-89
2022/10/07 11:25:43;;;;;;;66.47;59.70;;;;;;;25.76;35.25;101866.47;1792026;78;20849;-89
2022/10/07 11:28:18;;;;;;;37.70;31.77;;;;;;;25.53;35.17;101863.02;1794883;78;21216;-87
2022/10/07 11:30:53;;;;;;;8.28;5.83;;;;;;;25.33;34.91;101861.05;1794703;80;20924;-88
2022/10/07 11:33:34;;;;;;;2.35;2.15;;;;;;;25.14;35.90;101870.11;1743089;79;20951;-87
2022/10/07 11:36:38;;;;;;;2.70;1.95;;;;;;;24.96;35.99;101866.12;1757285;81;20944;-87
2022/10/07 11:39:07;;;;;;;7.00;3.22;;;;;;;24.68;36.00;101873.46;1739286;81;20881;-87
2022/10/07 11:41:57;;;;;;;7.25;5.28;;;;;;;24.31;35.91;101878.42;1756594;80;21226;-87
2022/10/07 11:44:34;;;;;;;3.40;2.20;;;;;;;24.08;36.02;101869.11;1756395;81;20999;-86
2022/10/07 11:47:01;;;;;;;8.43;6.70;;;;;;;23.87;36.44;101866.19;1756327;80;20912;-88
2022/10/07 11:49:43;;;;;;;1.85;1.60;;;;;;;23.72;36.94;101867.64;1756255;80;20995;-85
2022/10/07 11:52:23;;;;;;;8.50;3.10;;;;;;;23.47;37.41;101864.64;1755953;80;20920;-89
2022/10/07 11:55:06;;;;;;;4.03;3.25;;;;;;;23.26;38.09;101862.67;1756584;81;21220;-90
2022/10/07 11:57:35;;;;;;;4.45;2.70;;;;;;;22.93;38.63;101864.80;1756454;81;20865;-86
2022/10/07 12:00:07;;;;;;;3.62;2.45;;;;;;;22.68;39.49;101868.91;1765127;80;20954;-87
2022/10/07 12:02:43;;;;;;;5.83;2.15;;;;;;;22.49;39.69;101861.71;1762999;80;28024;-86